Time;durP1;ratioP1;P1;durP2;ratioP2;P2;SDS_P1;SDS_P2;PMS_P1;PMS_P2;Temp;Humidity;BMP_temperature;BMP_pressure;BME280_temperature;BME280_humidity;BME280_pressure;Samples;Min_cycle;Max_cycle;Signal;HPM_P1;HPM_P2
2022/01/18 00:02:00;;;;;;;19.87;8.40;;;;;;;-145.69;100.00;74097.56;5135063;27;20239;-80
2022/01/18 00:04:27;;;;;;;14.80;6.80;;;;;;;-145.69;100.00;74089.63;5135043;27;20204;-80
2022/01/18 00:06:54;;;;;;;16.53;8.10;;;;;;;-145.69;100.00;74093.59;5135046;27;20197;-79
2022/01/18 00:09:26;;;;;;;23.80;9.03;;;;;;;-145.69;100.00;74091.59;5134936;27;20200;-80
2022/01/18 00:11:58;;;;;;;23.07;8.27;;;;;;;-145.69;100.00;74085.63;5135137;27;20287;-79
2022/01/18 00:14:28;;;;;;;16.90;7.07;;;;;;;-145.69;100.00;74089.63;5134810;27;20235;-79
2022/01/18 00:17:04;;;;;;;17.23;7.33;;;;;;;-145.69;100.00;74095.59;5134908;27;20292;-79
2022/01/18 00:19:33;;;;;;;19.60;8.67;;;;;;;-145.69;100.00;74095.59;5134233;27;20204;-79
2022/01/18 00:22:11;;;;;;;17.67;8.30;;;;;;;-145.69;100.00;74101.56;5134692;27;20602;-80
2022/01/18 00:24:41;;;;;;;14.80;7.10;;;;;;;-145.69;100.00;74101.56;5134866;27;20295;-80
2022/01/18 00:27:11;;;;;;;16.27;7.03;;;;;;;-145.69;100.00;74099.56;5134869;27;20255;-80
2022/01/18 00:29:43;;;;;;;13.63;6.87;;;;;;;-145.69;100.00;74101.56;5134766;27;20209;-79
2022/01/18 00:32:15;;;;;;;19.00;8.33;;;;;;;-145.69;100.00;74097.56;5134430;27;20287;-80
2022/01/18 00:34:44;;;;;;;14.37;7.20;;;;;;;-145.69;100.00;74091.59;5134300;27;20225;-80
2022/01/18 00:37:26;;;;;;;15.17;7.33;;;;;;;-145.69;100.00;74093.59;5133978;27;20224;-80
2022/01/18 00:39:55;;;;;;;17.90;7.63;;;;;;;-145.69;100.00;74093.59;5119088;27;20224;-80
2022/01/18 00:42:21;;;;;;;16.90;7.97;;;;;;;-145.69;100.00;74095.59;5113714;28;20636;-79
2022/01/18 00:44:48;;;;;;;15.40;7.43;;;;;;;-145.69;100.00;74093.59;5113493;28;20202;-80
2022/01/18 00:47:15;;;;;;;13.83;7.30;;;;;;;-145.69;100.00;74101.56;5113992;28;20197;-79
2022/01/18 00:49:44;;;;;;;17.33;6.83;;;;;;;-145.69;100.00;74103.56;5128060;27;20700;-80
2022/01/18 00:52:11;;;;;;;18.63;7.93;;;;;;;-145.69;100.00;74101.56;5134029;27;20216;-80
2022/01/18 00:54:41;;;;;;;19.80;8.37;;;;;;;-145.69;100.00;74089.63;5133197;27;20808;-79
2022/01/18 00:57:09;;;;;;;21.60;8.07;;;;;;;-145.69;100.00;74087.63;5133960;27;20221;-80
2022/01/18 00:59:36;;;;;;;20.43;7.17;;;;;;;-145.69;100.00;74085.63;5134730;27;20203;-79
2022/01/18 01:02:03;;;;;;;19.47;7.73;;;;;;;-145.69;100.00;74083.63;5134861;27;20193;-79
2022/01/18 01:04:33;;;;;;;18.63;8.47;;;;;;;-145.69;100.00;74085.63;5135091;27;20197;-80
2022/01/18 01:07:00;;;;;;;18.33;7.77;;;;;;;-145.69;100.00;74091.59;5134772;27;20204;-79
2022/01/18 01:09:26;;;;;;;15.13;7.30;;;;;;;-145.69;100.00;74091.59;5134772;27;20196;-80
2022/01/18 01:11:53;;;;;;;21.43;7.97;;;;;;;-145.69;100.00;74101.56;5134774;27;20205;-79
2022/01/18 01:14:24;;;;;;;13.70;7.07;;;;;;;-145.69;100.00;74103.56;5135217;27;20232;-79
2022/01/18 01:16:58;;;;;;;18.03;8.17;;;;;;;-145.69;100.00;74103.56;5134868;27;20707;-79
2022/01/18 01:36:14;;;;;;;14.93;6.43;;;;;;;-145.69;100.00;74119.47;5128525;27;20243;-79
2022/01/18 01:44:21;;;;;;;15.03;6.50;;;;;;;-145.69;100.00;74125.44;5134565;27;20223;-78
2022/01/18 01:46:50;;;;;;;15.93;6.73;;;;;;;-145.69;100.00;74121.47;5134242;27;20201;-79
2022/01/18 01:49:18;;;;;;;23.73;8.87;;;;;;;-145.69;100.00;74127.44;5133901;27;20220;-79
2022/01/18 01:51:47;;;;;;;19.00;7.57;;;;;;;-145.69;100.00;74125.44;5134227;27;20199;-79
2022/01/18 01:54:14;;;;;;;19.87;7.70;;;;;;;-145.69;100.00;74125.44;5134178;27;20256;-79
2022/01/18 01:56:41;;;;;;;14.80;6.83;;;;;;;-145.69;100.00;74121.47;5134048;27;20208;-79
2022/01/18 01:59:07;;;;;;;14.90;6.50;;;;;;;-145.69;100.00;74121.47;5134139;27;20223;-79
2022/01/18 02:01:40;;;;;;;15.40;7.07;;;;;;;-145.69;100.00;74123.47;5134164;27;20196;-79
2022/01/18 02:04:07;;;;;;;18.97;7.00;;;;;;;-145.69;100.00;74111.50;5134082;27;20196;-79
2022/01/18 02:06:34;;;;;;;18.87;7.30;;;;;;;-145.69;100.00;74109.53;5134110;27;20193;-80
2022/01/18 02:09:00;;;;;;;18.93;7.70;;;;;;;-145.69;100.00;74109.53;5133991;27;20193;-79
2022/01/18 02:11:27;;;;;;;19.23;7.90;;;;;;;-145.69;100.00;74113.50;5132072;27;20438;-79
2022/01/18 02:13:54;;;;;;;17.53;7.70;;;;;;;-145.69;100.00;74111.50;5118000;27;20250;-79
2022/01/18 02:21:48;;;;;;;20.70;8.13;;;;;;;-145.69;100.00;74111.50;5134007;27;20269;-79
2022/01/18 02:24:16;;;;;;;15.97;7.30;;;;;;;-145.69;100.00;74105.53;5133808;27;20199;-79
2022/01/18 02:26:43;;;;;;;25.73;11.95;;;;;;;-145.69;100.00;74109.53;5132398;27;20429;-79
2022/01/18 02:29:11;;;;;;;20.13;8.47;;;;;;;-145.69;100.00;74107.53;5133601;27;20220;-79
2022/01/18 02:31:38;;;;;;;16.00;7.33;;;;;;;-145.69;100.00;74113.50;5129110;27;20196;-79
2022/01/18 02:34:06;;;;;;;17.20;7.53;;;;;;;-145.69;100.00;74121.47;5113095;28;20229;-79
2022/01/18 02:36:33;;;;;;;14.93;6.70;;;;;;;-145.69;100.00;74121.47;5113039;28;20259;-79
2022/01/18 02:39:02;;;;;;;14.63;6.77;;;;;;;-145.69;100.00;74129.44;5113149;28;20198;-79
2022/01/18 02:41:31;;;;;;;18.13;7.27;;;;;;;-145.69;100.00;74119.47;5113142;28;20205;-79
2022/01/18 02:43:59;;;;;;;19.07;6.80;;;;;;;-145.69;100.00;74117.50;5113200;28;20207;-79
2022/01/18 02:46:27;;;;;;;15.77;6.80;;;;;;;-145.69;100.00;74113.50;5112933;28;20696;-79
2022/01/18 02:48:55;;;;;;;16.97;6.73;;;;;;;-145.69;100.00;74105.53;5122884;28;20571;-79
2022/01/18 02:51:22;;;;;;;16.50;7.03;;;;;;;-145.69;100.00;74107.53;5133428;28;20232;-79
2022/01/18 02:53:55;;;;;;;19.37;7.23;;;;;;;-145.69;100.00;74109.53;5133486;28;20810;-79
2022/01/18 02:56:24;;;;;;;21.93;7.53;;;;;;;-145.69;100.00;74109.53;5133696;28;20195;-79
2022/01/18 02:58:57;;;;;;;21.70;7.27;;;;;;;-145.69;100.00;74115.50;5133795;28;20208;-79
2022/01/18 03:04:08;;;;;;;15.30;6.67;;;;;;;-145.69;100.00;74121.47;5133804;28;20218;-79
2022/01/18 03:06:34;;;;;;;15.80;7.30;;;;;;;-145.69;100.00;74115.50;5133436;28;20563;-79
2022/01/18 03:09:00;;;;;;;13.93;6.43;;;;;;;-145.69;100.00;74121.47;5133650;28;20253;-79
2022/01/18 03:11:28;;;;;;;12.63;6.43;;;;;;;-145.69;100.00;74129.44;5133637;28;20201;-79
2022/01/18 03:13:55;;;;;;;15.50;6.60;;;;;;;-145.69;100.00;74125.44;5133566;28;20227;-79
2022/01/18 03:16:21;;;;;;;12.53;5.63;;;;;;;-145.69;100.00;74125.44;5133373;28;20204;-79
2022/01/18 03:18:50;;;;;;;21.63;9.82;;;;;;;-145.69;100.00;74121.47;5134109;27;20903;-79
2022/01/18 03:21:16;;;;;;;17.40;8.20;;;;;;;-145.69;100.00;74125.44;5135750;27;20239;-79
2022/01/18 03:23:50;;;;;;;16.00;7.30;;;;;;;-145.69;100.00;74133.41;5135965;27;20204;-79
2022/01/18 03:26:18;;;;;;;17.63;7.03;;;;;;;-145.69;100.00;74135.41;5136669;27;20196;-78
2022/01/18 03:28:46;;;;;;;17.10;6.80;;;;;;;-145.69;100.00;74123.47;5136741;27;20539;-78
2022/01/18 03:31:12;;;;;;;17.03;6.77;;;;;;;-145.69;100.00;74123.47;5137130;27;20204;-78
2022/01/18 03:33:39;;;;;;;15.47;7.13;;;;;;;-145.69;100.00;74135.41;5136868;27;20232;-78
2022/01/18 03:36:06;;;;;;;18.93;7.77;;;;;;;-145.69;100.00;74145.38;5137136;27;20232;-78
2022/01/18 03:38:33;;;;;;;15.57;6.60;;;;;;;-145.69;100.00;74141.38;5137059;27;20193;-78
2022/01/18 03:41:01;;;;;;;18.73;6.70;;;;;;;-145.69;100.00;74133.41;5137094;27;20200;-78
2022/01/18 03:43:27;;;;;;;13.17;5.83;;;;;;;-145.69;100.00;74129.44;5136987;27;20225;-79
2022/01/18 03:46:00;;;;;;;17.10;6.73;;;;;;;-145.69;100.00;74129.44;5136662;27;20643;-79
2022/01/18 03:48:30;;;;;;;14.00;6.30;;;;;;;-145.69;100.00;74125.44;5135750;27;20643;-79
2022/01/18 03:50:57;;;;;;;13.63;6.80;;;;;;;-145.69;100.00;74117.50;5135384;27;20222;-79
2022/01/18 03:53:23;;;;;;;16.20;7.17;;;;;;;-145.69;100.00;74129.44;5135159;27;20226;-78
2022/01/18 03:55:51;;;;;;;16.47;6.67;;;;;;;-145.69;100.00;74121.47;5135223;27;20270;-78
2022/01/18 03:58:18;;;;;;;12.50;6.40;;;;;;;-145.69;100.00;74117.50;5135059;27;20200;-79
2022/01/18 04:00:44;;;;;;;23.93;7.90;;;;;;;-145.69;100.00;74127.44;5134770;27;20197;-79
2022/01/18 04:03:12;;;;;;;18.73;6.93;;;;;;;-145.69;100.00;74127.44;5135131;27;20201;-79
2022/01/18 04:05:39;;;;;;;13.07;6.33;;;;;;;-145.69;100.00;74121.47;5134873;27;20201;-79
2022/01/18 04:08:06;;;;;;;17.63;7.63;;;;;;;-145.69;100.00;74117.50;5134566;27;20515;-79
2022/01/18 04:10:32;;;;;;;16.33;7.13;;;;;;;-145.69;100.00;74115.50;5134926;27;20439;-78
2022/01/18 04:12:59;;;;;;;16.43;6.83;;;;;;;-145.69;100.00;74117.50;5135285;27;20208;-79
2022/01/18 04:15:25;;;;;;;13.77;6.07;;;;;;;-145.69;100.00;74111.50;5134706;27;20228;-78
2022/01/18 04:18:16;;;;;;;14.00;7.03;;;;;;;-145.69;100.00;74109.53;5135624;27;20724;-78
2022/01/18 04:29:00;;;;;;;13.57;6.17;;;;;;;-145.69;100.00;74111.50;5115195;27;20228;-78
2022/01/18 04:31:28;;;;;;;11.43;5.80;;;;;;;-145.69;100.00;74109.53;5114293;28;20209;-79
2022/01/18 04:33:56;;;;;;;12.50;5.77;;;;;;;-145.69;100.00;74105.53;5115344;28;20225;-79
2022/01/18 04:36:26;;;;;;;13.27;6.20;;;;;;;-145.69;100.00;74103.56;5115133;28;20257;-79
2022/01/18 04:38:53;;;;;;;17.07;6.67;;;;;;;-145.69;100.00;74117.50;5114489;28;20750;-79
2022/01/18 04:41:25;;;;;;;16.33;7.17;;;;;;;-145.69;100.00;74129.44;5114171;28;20212;-79
2022/01/18 04:44:07;;;;;;;14.87;6.00;;;;;;;-145.69;100.00;74129.44;5114313;28;20552;-79
2022/01/18 04:49:17;;;;;;;19.53;7.30;;;;;;;-145.69;100.00;74121.47;5129259;27;20214;-79
2022/01/18 04:51:46;;;;;;;14.57;6.43;;;;;;;-145.69;100.00;74119.47;5135483;27;20682;-79
2022/01/18 04:54:15;;;;;;;15.30;6.70;;;;;;;-145.69;100.00;74125.44;5135383;27;20235;-79
2022/01/18 04:59:26;;;;;;;20.57;7.10;;;;;;;-145.69;100.00;74113.50;5135451;27;20203;-79
2022/01/18 05:01:52;;;;;;;15.30;6.37;;;;;;;-145.69;100.00;74109.53;5135416;27;20192;-79
2022/01/18 05:04:19;;;;;;;13.70;5.87;;;;;;;-145.69;100.00;74111.50;5135095;27;20540;-79
2022/01/18 05:06:47;;;;;;;15.70;6.53;;;;;;;-145.69;100.00;74125.44;5135209;27;20197;-79
2022/01/18 05:09:13;;;;;;;15.33;6.07;;;;;;;-145.69;100.00;74125.44;5133686;27;20682;-79
2022/01/18 05:11:50;;;;;;;14.60;6.03;;;;;;;-145.69;100.00;74135.41;5134054;27;20563;-79
2022/01/18 05:14:26;;;;;;;14.73;6.20;;;;;;;-145.69;100.00;74127.44;5133634;27;20226;-78
2022/01/18 05:16:59;;;;;;;15.30;6.37;;;;;;;-145.69;100.00;74137.41;5133645;27;20253;-79
2022/01/18 05:19:38;;;;;;;16.63;5.80;;;;;;;-145.69;100.00;74131.44;5133710;27;20280;-79
2022/01/18 05:24:50;;;;;;;19.07;6.70;;;;;;;-145.69;100.00;74121.47;5135042;27;20254;-78
2022/01/18 05:27:17;;;;;;;15.73;6.47;;;;;;;-145.69;100.00;74113.50;5134535;27;20211;-79
2022/01/18 05:29:43;;;;;;;23.20;7.00;;;;;;;-145.69;100.00;74111.50;5133750;27;20563;-78
2022/01/18 05:32:10;;;;;;;12.60;6.10;;;;;;;-145.69;100.00;74119.47;5133105;27;20208;-79
2022/01/18 05:34:36;;;;;;;16.83;6.70;;;;;;;-145.69;100.00;74111.50;5132969;27;20224;-79
2022/01/18 05:37:03;;;;;;;17.30;6.33;;;;;;;-145.69;100.00;74109.53;5133253;27;20231;-79
2022/01/18 05:39:31;;;;;;;14.67;6.60;;;;;;;-145.69;100.00;74113.50;5133218;27;20200;-78
2022/01/18 05:41:57;;;;;;;15.57;6.00;;;;;;;-145.69;100.00;74107.53;5132788;27;20205;-79
2022/01/18 05:44:25;;;;;;;15.27;5.83;;;;;;;-145.69;100.00;74113.50;5132968;27;20200;-78
2022/01/18 05:46:51;;;;;;;16.60;5.80;;;;;;;-145.69;100.00;74109.53;5132793;27;20287;-78
2022/01/18 05:49:18;;;;;;;10.10;5.03;;;;;;;-145.69;100.00;74097.56;5134061;27;20201;-79
2022/01/18 05:51:45;;;;;;;14.90;5.60;;;;;;;-145.69;100.00;74093.59;5134473;27;20201;-79
2022/01/18 05:54:12;;;;;;;16.23;5.53;;;;;;;-145.69;100.00;74101.56;5134439;27;20204;-79
2022/01/18 05:56:40;;;;;;;16.27;6.17;;;;;;;-145.69;100.00;74109.53;5134564;27;20583;-79
2022/01/18 05:59:06;;;;;;;13.60;5.70;;;;;;;-145.69;100.00;74113.50;5133848;27;20200;-79
2022/01/18 06:01:37;;;;;;;12.37;5.53;;;;;;;-145.69;100.00;74119.47;5133188;27;20555;-79
2022/01/18 06:06:56;;;;;;;16.17;6.73;;;;;;;-145.69;100.00;74115.50;5134179;27;20199;-79
2022/01/18 06:09:24;;;;;;;23.00;7.53;;;;;;;-145.69;100.00;74117.50;5134258;27;20196;-79
2022/01/18 06:11:52;;;;;;;13.80;5.60;;;;;;;-145.69;100.00;74117.50;5134239;27;20258;-79
2022/01/18 06:14:18;;;;;;;12.03;4.97;;;;;;;-145.69;100.00;74121.47;5134221;27;20196;-79
2022/01/18 06:16:46;;;;;;;16.20;6.17;;;;;;;-145.69;100.00;74121.47;5134191;27;20575;-79
2022/01/18 06:19:12;;;;;;;20.27;6.50;;;;;;;-145.69;100.00;74113.50;5133944;27;20204;-79
2022/01/18 06:21:39;;;;;;;14.43;5.80;;;;;;;-145.69;100.00;74103.56;5133678;27;20291;-79
2022/01/18 06:24:07;;;;;;;19.83;5.73;;;;;;;-145.69;100.00;74097.56;5117685;27;20209;-79
2022/01/18 06:26:34;;;;;;;15.70;6.30;;;;;;;-145.69;100.00;74085.63;5113328;28;20197;-79
2022/01/18 06:29:02;;;;;;;20.13;6.70;;;;;;;-145.69;100.00;74077.66;5113577;28;20205;-79
2022/01/18 06:31:29;;;;;;;17.03;6.53;;;;;;;-145.69;100.00;74073.69;5113277;28;20652;-79
2022/01/18 06:33:55;;;;;;;13.77;5.40;;;;;;;-145.69;100.00;74075.69;5113212;28;20197;-79
2022/01/18 06:36:22;;;;;;;14.03;5.10;;;;;;;-145.69;100.00;74069.69;5112997;28;20641;-79
2022/01/18 06:38:48;;;;;;;13.57;5.57;;;;;;;-145.69;100.00;74067.72;5113352;28;20258;-79
2022/01/18 06:41:15;;;;;;;13.07;5.40;;;;;;;-145.69;100.00;74063.72;5113207;28;20201;-79
2022/01/18 06:43:41;;;;;;;17.03;5.33;;;;;;;-145.69;100.00;74061.72;5113258;28;20605;-79
2022/01/18 06:46:09;;;;;;;15.03;5.80;;;;;;;-145.69;100.00;74069.69;5113394;28;20202;-79
2022/01/18 06:48:35;;;;;;;15.47;5.80;;;;;;;-145.69;100.00;74067.72;5123293;28;20597;-79
2022/01/18 06:51:02;;;;;;;15.77;5.70;;;;;;;-145.69;100.00;74071.69;5134093;27;20196;-79
2022/01/18 06:53:32;;;;;;;14.07;5.40;;;;;;;-145.69;100.00;74071.69;5136211;27;20253;-79
2022/01/18 06:55:58;;;;;;;14.83;5.23;;;;;;;-145.69;100.00;74067.72;5137780;27;20228;-79
2022/01/18 06:58:25;;;;;;;13.60;5.10;;;;;;;-145.69;100.00;74067.72;5137976;27;20200;-79
2022/01/18 07:00:51;;;;;;;14.50;5.80;;;;;;;-145.69;100.00;74075.69;5137892;27;20197;-79
2022/01/18 07:03:20;;;;;;;16.00;6.43;;;;;;;-145.69;100.00;74071.69;5137757;27;20201;-78
2022/01/18 07:05:46;;;;;;;15.17;5.37;;;;;;;-145.69;100.00;74067.72;5137717;27;20201;-79
2022/01/18 07:08:13;;;;;;;12.90;5.80;;;;;;;-145.69;100.00;74061.72;5137487;27;20208;-79
2022/01/18 07:10:39;;;;;;;16.53;5.93;;;;;;;-145.69;100.00;74071.69;5137677;27;20203;-79
2022/01/18 07:13:05;;;;;;;16.57;6.00;;;;;;;-145.69;100.00;74073.69;5137667;27;20193;-79
2022/01/18 07:15:32;;;;;;;16.53;5.57;;;;;;;-145.69;100.00;74071.69;5137522;27;20224;-79
2022/01/18 07:17:59;;;;;;;11.93;5.33;;;;;;;-145.69;100.00;74077.66;5137156;27;20189;-79
2022/01/18 07:20:27;;;;;;;11.23;5.57;;;;;;;-145.69;100.00;74065.72;5137248;27;20242;-79
2022/01/18 07:22:54;;;;;;;13.17;5.80;;;;;;;-145.69;100.00;74069.69;5137059;27;20253;-79
2022/01/18 07:25:20;;;;;;;18.10;6.43;;;;;;;-145.69;100.00;74081.66;5137269;27;20197;-79
2022/01/18 07:27:47;;;;;;;15.13;5.53;;;;;;;-145.69;100.00;74081.66;5137237;27;20197;-79
2022/01/18 07:30:13;;;;;;;14.60;6.00;;;;;;;-145.69;100.00;74081.66;5137031;27;20287;-79
2022/01/18 07:32:40;;;;;;;12.50;5.77;;;;;;;-145.69;100.00;74085.63;5137057;27;20193;-79
2022/01/18 07:35:12;;;;;;;17.20;6.37;;;;;;;-145.69;100.00;74081.66;5137129;27;20319;-79
2022/01/18 07:37:40;;;;;;;12.93;5.30;;;;;;;-145.69;100.00;74089.63;5136902;27;20925;-79
2022/01/18 07:40:07;;;;;;;15.37;6.13;;;;;;;-145.69;100.00;74087.63;5137113;27;20196;-79
2022/01/18 07:42:35;;;;;;;19.03;6.23;;;;;;;-145.69;100.00;74089.63;5136936;27;20555;-79
2022/01/18 07:45:02;;;;;;;17.87;6.90;;;;;;;-145.69;100.00;74089.63;5136708;27;20205;-79
2022/01/18 07:47:29;;;;;;;14.23;5.73;;;;;;;-145.69;100.00;74095.59;5136567;27;20575;-79
2022/01/18 07:49:55;;;;;;;14.90;6.40;;;;;;;-145.69;100.00;74103.56;5136652;27;20208;-79
2022/01/18 07:52:22;;;;;;;14.00;5.40;;;;;;;-145.69;100.00;74097.56;5136624;27;20615;-79
2022/01/18 07:54:50;;;;;;;17.90;6.20;;;;;;;-145.69;100.00;74109.53;5136561;27;20208;-79
2022/01/18 07:57:16;;;;;;;14.20;5.27;;;;;;;-145.69;100.00;74099.56;5136569;27;20205;-79
2022/01/18 07:59:46;;;;;;;12.83;6.03;;;;;;;-145.69;100.00;74097.56;5136703;27;20589;-79
2022/01/18 08:02:12;;;;;;;14.43;5.67;;;;;;;-145.69;100.00;74087.63;5136508;27;20197;-79
2022/01/18 08:04:39;;;;;;;15.67;6.10;;;;;;;-145.69;100.00;74085.63;5136242;27;20213;-79
2022/01/18 08:07:05;;;;;;;13.23;5.90;;;;;;;-145.69;100.00;74079.66;5136667;27;20197;-80
2022/01/18 08:09:32;;;;;;;19.03;6.67;;;;;;;-145.69;100.00;74071.69;5136477;27;20197;-79
2022/01/18 08:11:59;;;;;;;14.17;5.73;;;;;;;-145.69;100.00;74073.69;5136468;27;20196;-80
2022/01/18 08:14:29;;;;;;;16.50;6.67;;;;;;;-145.69;100.00;74075.69;5136412;27;20641;-80
2022/01/18 08:17:01;;;;;;;13.97;5.57;;;;;;;-145.69;100.00;74081.66;5136221;27;20228;-80
2022/01/18 08:19:29;;;;;;;16.63;5.60;;;;;;;-145.69;100.00;74077.66;5136187;27;20249;-80
2022/01/18 08:21:56;;;;;;;16.83;6.10;;;;;;;-145.69;100.00;74083.63;5136304;27;20224;-80
2022/01/18 08:24:23;;;;;;;18.23;6.97;;;;;;;-145.69;100.00;74065.72;5136004;27;20201;-80
2022/01/18 08:26:49;;;;;;;18.77;6.93;;;;;;;-145.69;100.00;74061.72;5136027;27;20197;-80
2022/01/18 08:29:17;;;;;;;16.40;7.20;;;;;;;-145.69;100.00;74063.72;5135718;27;20249;-81
2022/01/18 08:31:44;;;;;;;12.20;6.00;;;;;;;-145.69;100.00;74055.75;5130522;27;20197;-81
2022/01/18 08:34:10;;;;;;;15.83;6.10;;;;;;;-145.69;100.00;74057.75;5115298;28;20279;-80
2022/01/18 08:36:37;;;;;;;13.07;5.80;;;;;;;-145.69;100.00;74053.78;5115020;28;20233;-81
2022/01/18 08:39:04;;;;;;;12.10;5.47;;;;;;;-145.69;100.00;74059.75;5115056;28;20208;-82
2022/01/18 08:41:31;;;;;;;16.00;6.20;;;;;;;-145.69;100.00;74041.81;5115094;28;20270;-81
2022/01/18 08:43:57;;;;;;;14.20;6.00;;;;;;;-145.69;100.00;74051.78;5114835;28;20201;-82
2022/01/18 08:46:25;;;;;;;20.97;6.53;;;;;;;-145.69;100.00;74049.78;5115088;28;20197;-82
2022/01/18 08:48:52;;;;;;;13.53;5.93;;;;;;;-145.69;100.00;74049.78;5131537;27;20192;-82
2022/01/18 08:51:19;;;;;;;14.47;5.73;;;;;;;-145.69;100.00;74041.81;5135563;27;20609;-82
2022/01/18 08:53:48;;;;;;;16.63;6.43;;;;;;;-145.69;100.00;74033.84;5135273;27;20207;-81
2022/01/18 08:56:16;;;;;;;10.67;5.17;;;;;;;-145.69;100.00;74037.84;5135215;27;20228;-82
2022/01/18 08:58:42;;;;;;;11.07;5.17;;;;;;;-145.69;100.00;74041.81;5135090;27;20192;-81
2022/01/18 09:01:09;;;;;;;14.53;5.90;;;;;;;-145.69;100.00;74037.84;5135352;27;20200;-81
2022/01/18 09:03:37;;;;;;;16.63;6.60;;;;;;;-145.69;100.00;74045.81;5135149;27;20690;-81
2022/01/18 09:06:05;;;;;;;13.47;5.67;;;;;;;-145.69;100.00;74041.81;5134541;27;20244;-81
2022/01/18 09:08:33;;;;;;;14.67;6.07;;;;;;;-145.69;100.00;74027.88;5134948;27;20239;-81
2022/01/18 09:11:00;;;;;;;17.93;6.00;;;;;;;-145.69;100.00;74015.94;5135063;27;20197;-81
2022/01/18 09:13:28;;;;;;;14.97;6.33;;;;;;;-145.69;100.00;74005.97;5134868;27;20196;-81
2022/01/18 09:15:55;;;;;;;17.23;6.23;;;;;;;-145.69;100.00;74009.97;5134180;27;20230;-81
2022/01/18 09:18:22;;;;;;;14.73;6.40;;;;;;;-145.69;100.00;74019.91;5134728;27;20205;-81
2022/01/18 09:20:49;;;;;;;17.97;7.03;;;;;;;-145.69;100.00;74013.94;5134619;27;20718;-81
2022/01/18 09:23:16;;;;;;;8.90;5.00;;;;;;;-145.69;100.00;73998.03;5134661;27;20197;-81
2022/01/18 09:25:43;;;;;;;9.77;4.60;;;;;;;-145.69;100.00;74000.00;5134520;27;20201;-81
2022/01/18 09:28:10;;;;;;;11.00;5.10;;;;;;;-145.69;100.00;74009.97;5134961;27;20221;-81
2022/01/18 09:30:37;;;;;;;9.03;4.60;;;;;;;-145.69;100.00;74011.97;5134638;27;20205;-81
2022/01/18 09:33:06;;;;;;;9.47;4.77;;;;;;;-145.69;100.00;73996.03;5134409;27;20655;-81
2022/01/18 09:35:33;;;;;;;10.23;4.50;;;;;;;-145.69;100.00;73994.03;5134284;27;20224;-81
2022/01/18 09:38:01;;;;;;;11.20;4.73;;;;;;;-145.69;100.00;73994.03;5134875;27;20273;-81
2022/01/18 09:40:28;;;;;;;8.40;4.27;;;;;;;-145.69;100.00;73988.06;5131261;27;20215;-84
2022/01/18 09:42:59;;;;;;;10.70;4.73;;;;;;;-145.69;100.00;73996.03;5134341;27;20204;-85
2022/01/18 09:45:27;;;;;;;8.27;4.20;;;;;;;-145.69;100.00;73982.09;5134700;27;20203;-84
2022/01/18 09:47:55;;;;;;;7.80;3.90;;;;;;;-145.69;100.00;74005.97;5134642;27;20597;-81
2022/01/18 09:50:25;;;;;;;8.30;3.80;;;;;;;-145.69;100.00;74002.00;5134228;27;20200;-86
2022/01/18 09:52:54;;;;;;;6.43;3.47;;;;;;;-145.69;100.00;73994.03;5134157;27;20197;-81
2022/01/18 09:55:24;;;;;;;5.87;3.73;;;;;;;-145.69;100.00;74002.00;5134048;27;20208;-82
2022/01/18 09:57:51;;;;;;;6.83;3.53;;;;;;;-145.69;100.00;73986.06;5134097;27;20200;-82
2022/01/18 10:00:18;;;;;;;7.53;3.80;;;;;;;-145.69;100.00;73970.16;5134123;27;20196;-83
2022/01/18 10:02:45;;;;;;;9.70;3.57;;;;;;;-145.69;100.00;73984.09;5134050;27;20203;-80
2022/01/18 10:05:21;;;;;;;7.53;3.80;;;;;;;-145.69;100.00;73978.09;5133721;27;20212;-80
2022/01/18 10:07:56;;;;;;;8.87;3.63;;;;;;;-145.69;100.00;73982.09;5133906;27;20212;-80
2022/01/18 10:10:37;;;;;;;7.27;3.70;;;;;;;-145.69;100.00;73994.03;5134094;27;20278;-79
2022/01/18 10:13:04;;;;;;;8.73;4.00;;;;;;;-145.69;100.00;73976.13;5134265;27;20196;-79
2022/01/18 10:15:30;;;;;;;8.40;3.53;;;;;;;-145.69;100.00;73968.16;5134038;27;20200;-82
2022/01/18 10:18:07;;;;;;;9.07;4.13;;;;;;;-145.69;100.00;73976.13;5133886;27;20238;-81
2022/01/18 10:20:48;;;;;;;7.50;3.60;;;;;;;-145.69;100.00;73934.31;5134177;27;20257;-82
2022/01/18 10:23:21;;;;;;;8.50;3.93;;;;;;;-145.69;100.00;73946.25;5133981;27;20243;-81
2022/01/18 10:25:50;;;;;;;7.33;3.30;;;;;;;-145.69;100.00;73960.19;5133150;27;20647;-81
2022/01/18 10:28:34;;;;;;;11.00;3.93;;;;;;;-145.69;100.00;73968.16;5131765;27;20189;-80
2022/01/18 10:31:06;;;;;;;7.57;3.50;;;;;;;-145.69;100.00;73962.19;5134253;27;20207;-80
2022/01/18 10:33:37;;;;;;;9.90;3.00;;;;;;;-145.69;100.00;73982.09;5133930;27;20283;-79
2022/01/18 10:36:11;;;;;;;5.37;3.13;;;;;;;-145.69;100.00;73966.16;5133308;27;20256;-81
2022/01/18 10:38:40;;;;;;;6.50;3.10;;;;;;;-145.69;100.00;73938.28;5133778;28;20204;-81
2022/01/18 10:41:28;;;;;;;7.57;3.13;;;;;;;-145.69;100.00;73914.38;5133928;28;20209;-80
2022/01/18 10:44:08;;;;;;;6.67;3.03;;;;;;;-145.69;100.00;73892.50;5133845;28;20201;-81
2022/01/18 10:46:37;;;;;;;7.43;2.80;;;;;;;-145.69;100.00;73892.50;5133664;28;20547;-82
2022/01/18 10:49:05;;;;;;;7.53;3.03;;;;;;;-145.69;100.00;73886.50;5133675;28;20201;-85
2022/01/18 10:51:33;;;;;;;6.60;2.87;;;;;;;-145.69;100.00;73874.56;5133888;28;20318;-84
2022/01/18 10:54:01;;;;;;;6.67;3.30;;;;;;;-145.69;100.00;73834.75;5133956;28;20205;-84
2022/01/18 10:56:38;;;;;;;4.83;2.60;;;;;;;-145.69;100.00;73816.81;5133275;28;20251;-82
2022/01/18 10:59:05;;;;;;;7.13;3.00;;;;;;;-145.69;100.00;73812.84;5133590;27;20658;-81
2022/01/18 11:01:32;;;;;;;6.20;3.43;;;;;;;-145.69;100.00;73802.88;5133192;27;20754;-81
2022/01/18 11:04:06;;;;;;;6.13;3.10;;;;;;;-145.69;100.00;73834.75;5133904;27;20659;-84
2022/01/18 11:06:34;;;;;;;5.50;2.63;;;;;;;-145.69;100.00;73834.75;5133786;27;20236;-85
2022/01/18 11:09:08;;;;;;;4.63;2.70;;;;;;;-145.69;100.00;73824.78;5133665;27;20292;-85
2022/01/18 11:11:43;;;;;;;6.03;3.27;;;;;;;-145.69;100.00;73834.75;5133618;27;20200;-82
2022/01/18 11:14:11;;;;;;;5.97;3.03;;;;;;;-145.69;100.00;73804.88;5133225;27;20650;-81
2022/01/18 11:16:41;;;;;;;7.10;3.03;;;;;;;-145.69;100.00;73806.88;5133389;27;20307;-82
2022/01/18 11:19:09;;;;;;;7.33;3.10;;;;;;;-145.69;100.00;73826.78;5133637;27;20224;-83
2022/01/18 11:21:36;;;;;;;5.27;2.50;;;;;;;-145.69;100.00;73848.69;5133439;27;20299;-84
2022/01/18 11:24:03;;;;;;;5.03;2.30;;;;;;;-145.69;100.00;73858.63;5133386;27;20697;-83
2022/01/18 11:26:29;;;;;;;5.90;3.07;;;;;;;-145.69;100.00;73850.69;5133510;27;20204;-84
2022/01/18 11:28:59;;;;;;;5.20;2.50;;;;;;;-145.69;100.00;73846.69;5133324;27;20551;-83
2022/01/18 11:31:25;;;;;;;5.10;2.57;;;;;;;-145.69;100.00;73846.69;5132837;27;20743;-79
2022/01/18 11:34:03;;;;;;;6.10;2.80;;;;;;;-145.69;100.00;73816.81;5133065;27;20205;-81
2022/01/18 11:36:37;;;;;;;6.07;2.53;;;;;;;-145.69;100.00;73814.84;5133051;27;20224;-81
2022/01/18 11:39:08;;;;;;;6.43;2.73;;;;;;;-145.69;100.00;73834.75;5134643;27;20188;-81
2022/01/18 11:41:36;;;;;;;6.63;2.43;;;;;;;-145.69;100.00;73822.81;5137056;27;20201;-81
2022/01/18 11:44:15;;;;;;;5.23;2.93;;;;;;;-145.69;100.00;73808.88;5137238;27;20197;-82
2022/01/18 11:46:47;;;;;;;5.50;3.33;;;;;;;-145.69;100.00;73810.84;5136708;27;20438;-81
2022/01/18 11:49:21;;;;;;;5.07;2.70;;;;;;;-145.69;100.00;73818.81;5136876;27;20192;-83
2022/01/18 11:51:54;;;;;;;5.80;2.80;;;;;;;-145.69;100.00;73822.81;5136993;27;20206;-82
2022/01/18 11:54:24;;;;;;;4.93;2.87;;;;;;;-145.69;100.00;73820.81;5136674;27;20652;-80
2022/01/18 11:56:51;;;;;;;8.70;3.07;;;;;;;-145.69;100.00;73816.81;5136755;27;20606;-87
2022/01/18 11:59:21;;;;;;;5.93;2.63;;;;;;;-145.69;100.00;73779.00;5136912;27;20203;-82
2022/01/18 12:01:52;;;;;;;5.43;2.20;;;;;;;-145.69;100.00;73763.06;5136222;27;20193;-81